New Orleans, Louisiana
Traffic Map
Current Weather Conditions
New Orleans, Louisiana
Clear
Clear
90°
Feels Like: 96°
Wind Chill: 90° Ceiling: Unl
Heat Index: 96° Visibility: 10mi
Dew Point: 72° Wind: 3mph
Humidity: 55% Direction: 190° (S)
Pressure: 30.01in Gusts: 0mph
Raw Report DataKVSH 161935Z AUTO 19003KT 10SM CLR 32/22 A3001 RMK AO1
Traffic Incident Summary
Active as of:
Severity:
Category:
InformationThere was an issue retrieving the traffic information for this location. Please try a different location or try again shortly.
Advertisements
Track Severe Weather on mobile